Government of Jersey

Home Log in

METAR EGJJ 291050Z 35004KT 310V040 9999 FEW028 08/01 Q1017

METAR EGJB 291050Z 33003KT 290V010 9999 SCT028 07/02 Q1017

METAR EGJA 291050Z 31005KT 270V340 9999 SCT025 06/01 Q1017

METAR LFRD 291030Z AUTO 22002KT CAVOK 07/04 Q1017 NOSIG

METAR LFRC 291030Z AUTO 31005KT 290V010 9999 FEW001 BKN019 06/01 Q1016 NOSIG